Time;durP1;ratioP1;P1;durP2;ratioP2;P2;SDS_P1;SDS_P2;PMS_P1;PMS_P2;Temp;Humidity;BMP_temperature;BMP_pressure;BME280_temperature;BME280_humidity;BME280_pressure;Samples;Min_cycle;Max_cycle;Signal;HPM_P1;HPM_P2
2023/09/07 00:00:46;;;;;;;6.00;5.30;;;;;;;;;;5012474;28;20533;-62
2023/09/07 00:03:14;;;;;;;6.73;5.57;;;;;;;;;;5012441;28;20941;-62
2023/09/07 00:05:42;;;;;;;5.37;4.93;;;;;;;;;;5012675;28;20495;-62
2023/09/07 00:08:09;;;;;;;5.67;5.20;;;;;;;;;;5012523;28;20486;-62
2023/09/07 00:10:37;;;;;;;5.90;5.30;;;;;;;;;;5012442;28;20439;-62
2023/09/07 00:13:05;;;;;;;7.50;4.90;;;;;;;;;;5012543;28;20791;-62
2023/09/07 00:15:37;;;;;;;6.50;5.90;;;;;;;;;;5012654;28;20435;-62
2023/09/07 00:18:04;;;;;;;6.93;5.47;;;;;;;;;;5012389;28;20465;-62
2023/09/07 00:20:33;;;;;;;7.77;5.73;;;;;;;;;;5012720;28;20446;-62
2023/09/07 00:23:01;;;;;;;7.63;5.00;;;;;;;;;;5012482;28;20541;-62
2023/09/07 00:25:28;;;;;;;7.43;4.90;;;;;;;;;;5012560;28;20494;-62
2023/09/07 00:27:56;;;;;;;6.13;5.37;;;;;;;;;;5012226;28;20482;-61
2023/09/07 00:30:24;;;;;;;6.30;5.70;;;;;;;;;;5013216;28;20446;-61
2023/09/07 00:32:51;;;;;;;6.57;5.80;;;;;;;;;;5012636;28;20467;-62
2023/09/07 00:35:18;;;;;;;5.93;5.43;;;;;;;;;;5012354;28;20533;-62
2023/09/07 00:37:45;;;;;;;6.20;5.60;;;;;;;;;;5012175;28;20821;-62
2023/09/07 00:40:12;;;;;;;6.20;5.57;;;;;;;;;;5012903;28;20442;-61
2023/09/07 00:42:40;;;;;;;7.03;5.57;;;;;;;;;;5012379;28;20442;-62
2023/09/07 00:45:09;;;;;;;5.80;5.30;;;;;;;;;;5012691;28;20535;-62
2023/09/07 00:47:36;;;;;;;8.37;6.80;;;;;;;;;;5012190;28;20483;-62
2023/09/07 00:50:04;;;;;;;7.97;6.07;;;;;;;;;;5011933;28;20901;-62
2023/09/07 00:52:31;;;;;;;5.90;5.40;;;;;;;;;;5012280;28;20481;-62
2023/09/07 00:54:59;;;;;;;8.20;5.33;;;;;;;;;;5012125;28;20450;-62
2023/09/07 00:57:27;;;;;;;6.10;5.50;;;;;;;;;;5012284;28;20458;-62
2023/09/07 00:59:54;;;;;;;6.50;5.80;;;;;;;;;;5012616;28;20481;-62
2023/09/07 01:02:22;;;;;;;6.53;5.77;;;;;;;;;;5015066;28;21017;-62
2023/09/07 01:04:50;;;;;;;8.87;6.13;;;;;;;;;;5016006;28;20454;-62
2023/09/07 01:07:19;;;;;;;10.37;6.50;;;;;;;;;;5015939;28;20445;-62
2023/09/07 01:09:47;;;;;;;5.90;5.40;;;;;;;;;;5016345;28;20457;-62
2023/09/07 01:12:18;;;;;;;6.20;5.70;;;;;;;;;;5015938;28;20802;-61
2023/09/07 01:14:45;;;;;;;6.10;5.60;;;;;;;;;;5016217;28;20790;-62
2023/09/07 01:17:13;;;;;;;8.00;6.30;;;;;;;;;;5015530;28;20442;-61
2023/09/07 01:19:42;;;;;;;6.37;5.87;;;;;;;;;;5015219;28;20446;-61
2023/09/07 01:22:10;;;;;;;7.00;6.30;;;;;;;;;;5015900;28;20541;-62
2023/09/07 01:24:39;;;;;;;7.10;6.40;;;;;;;;;;5015424;28;20530;-62
2023/09/07 01:27:06;;;;;;;6.90;5.67;;;;;;;;;;5015102;28;20537;-61
2023/09/07 01:29:33;;;;;;;9.30;6.40;;;;;;;;;;5015260;28;20852;-62
2023/09/07 01:32:01;;;;;;;8.33;5.90;;;;;;;;;;5015799;28;20546;-62
2023/09/07 01:34:28;;;;;;;7.00;6.30;;;;;;;;;;5015047;28;20612;-61
2023/09/07 01:36:55;;;;;;;6.53;5.83;;;;;;;;;;5015327;28;20442;-61
2023/09/07 01:39:24;;;;;;;6.27;5.67;;;;;;;;;;5015197;28;20453;-61
2023/09/07 01:41:51;;;;;;;5.70;5.30;;;;;;;;;;5014809;28;20921;-61
2023/09/07 01:44:18;;;;;;;8.50;4.97;;;;;;;;;;5014948;28;20474;-62
2023/09/07 01:46:45;;;;;;;6.33;5.73;;;;;;;;;;5014985;28;20443;-61
2023/09/07 01:49:13;;;;;;;8.77;5.93;;;;;;;;;;5014922;28;20485;-61
2023/09/07 01:51:40;;;;;;;6.57;5.97;;;;;;;;;;5015141;28;20528;-61
2023/09/07 01:54:09;;;;;;;6.97;6.37;;;;;;;;;;5015111;28;20472;-62
2023/09/07 01:56:39;;;;;;;7.37;5.80;;;;;;;;;;5015013;28;20457;-62
2023/09/07 01:59:06;;;;;;;7.50;6.10;;;;;;;;;;5014656;28;20476;-62
2023/09/07 02:01:36;;;;;;;10.83;5.67;;;;;;;;;;5014722;28;20444;-61
2023/09/07 02:04:03;;;;;;;7.07;6.47;;;;;;;;;;5014961;28;20776;-61
2023/09/07 02:06:30;;;;;;;8.70;6.10;;;;;;;;;;5014461;28;20549;-61
2023/09/07 02:08:58;;;;;;;7.00;6.40;;;;;;;;;;5014242;28;21011;-61
2023/09/07 02:11:25;;;;;;;6.30;5.70;;;;;;;;;;5014411;28;20439;-62
2023/09/07 02:13:53;;;;;;;6.20;5.60;;;;;;;;;;5013212;28;20445;-61
2023/09/07 02:16:21;;;;;;;7.80;6.23;;;;;;;;;;5014498;28;20485;-61
2023/09/07 02:18:51;;;;;;;12.03;7.00;;;;;;;;;;5014302;28;20457;-61
2023/09/07 02:21:19;;;;;;;6.87;5.30;;;;;;;;;;5014304;28;20434;-61
2023/09/07 02:23:46;;;;;;;12.37;5.60;;;;;;;;;;5014079;28;20443;-62
2023/09/07 02:26:13;;;;;;;7.20;6.50;;;;;;;;;;5013841;28;20537;-61
2023/09/07 02:28:40;;;;;;;8.50;6.57;;;;;;;;;;5013737;28;20588;-61
2023/09/07 02:31:09;;;;;;;6.53;5.93;;;;;;;;;;5013643;28;20984;-61
2023/09/07 02:33:36;;;;;;;12.10;6.07;;;;;;;;;;5013789;28;20472;-62
2023/09/07 02:36:04;;;;;;;6.07;5.57;;;;;;;;;;5013609;28;20940;-61
2023/09/07 02:38:31;;;;;;;7.33;6.63;;;;;;;;;;5013804;28;20496;-62
2023/09/07 02:40:58;;;;;;;7.43;6.50;;;;;;;;;;5013878;28;20449;-61
2023/09/07 02:43:25;;;;;;;5.97;5.17;;;;;;;;;;5013462;28;20443;-61
2023/09/07 02:45:53;;;;;;;7.00;6.30;;;;;;;;;;5013843;28;20443;-61
2023/09/07 02:48:21;;;;;;;12.53;6.40;;;;;;;;;;5013309;28;20487;-61
2023/09/07 02:50:50;;;;;;;7.77;7.07;;;;;;;;;;5013704;28;20443;-61
2023/09/07 02:53:17;;;;;;;6.87;6.17;;;;;;;;;;5013573;28;20447;-61
2023/09/07 02:55:45;;;;;;;7.33;6.17;;;;;;;;;;5013704;28;20724;-61
2023/09/07 02:58:12;;;;;;;9.93;6.50;;;;;;;;;;5013610;28;20448;-61
2023/09/07 03:00:44;;;;;;;6.77;6.23;;;;;;;;;;5013590;28;20532;-62
2023/09/07 03:03:11;;;;;;;7.57;6.87;;;;;;;;;;5013635;28;20441;-61
2023/09/07 03:05:40;;;;;;;7.60;6.80;;;;;;;;;;5013561;28;20478;-62
2023/09/07 03:08:07;;;;;;;8.70;7.77;;;;;;;;;;5013329;28;20449;-61
2023/09/07 03:10:35;;;;;;;7.90;7.10;;;;;;;;;;5013300;28;20540;-61
2023/09/07 03:13:02;;;;;;;7.33;6.73;;;;;;;;;;5013358;28;20479;-62
2023/09/07 03:15:29;;;;;;;7.93;6.40;;;;;;;;;;5012932;28;20481;-62
2023/09/07 03:17:56;;;;;;;9.10;6.53;;;;;;;;;;5013247;28;20947;-61
2023/09/07 03:20:23;;;;;;;8.00;6.37;;;;;;;;;;5013330;28;20469;-62
2023/09/07 03:22:52;;;;;;;12.73;7.03;;;;;;;;;;5013340;28;20532;-62
2023/09/07 03:25:19;;;;;;;7.10;6.30;;;;;;;;;;5013043;28;20808;-61
2023/09/07 03:27:46;;;;;;;11.97;7.60;;;;;;;;;;5012839;28;20927;-61
2023/09/07 03:30:13;;;;;;;7.57;6.87;;;;;;;;;;5013558;28;20844;-61
2023/09/07 03:32:41;;;;;;;7.23;6.60;;;;;;;;;;5013500;28;20451;-61
2023/09/07 03:35:09;;;;;;;7.77;6.33;;;;;;;;;;5013374;28;20978;-61
2023/09/07 03:37:36;;;;;;;8.43;6.57;;;;;;;;;;5013813;28;20443;-61
2023/09/07 03:40:06;;;;;;;7.03;6.43;;;;;;;;;;5012945;28;20445;-61
2023/09/07 03:42:33;;;;;;;8.27;7.13;;;;;;;;;;5013583;28;20972;-61
2023/09/07 03:45:00;;;;;;;6.70;6.10;;;;;;;;;;5013236;28;20445;-61
2023/09/07 03:47:29;;;;;;;9.10;7.90;;;;;;;;;;5013590;28;20528;-61
2023/09/07 03:49:56;;;;;;;8.33;7.30;;;;;;;;;;5013064;28;20484;-61
2023/09/07 03:52:24;;;;;;;14.57;7.60;;;;;;;;;;5013208;28;20448;-61
2023/09/07 03:54:51;;;;;;;8.10;7.30;;;;;;;;;;5012722;28;20971;-61
2023/09/07 03:57:21;;;;;;;6.83;6.13;;;;;;;;;;5011761;28;20450;-61
2023/09/07 03:59:49;;;;;;;8.70;7.80;;;;;;;;;;5012117;28;20461;-61
2023/09/07 04:02:17;;;;;;;8.00;7.20;;;;;;;;;;5012861;28;20448;-61
2023/09/07 04:04:44;;;;;;;7.83;7.13;;;;;;;;;;5013299;28;20449;-61
2023/09/07 04:07:11;;;;;;;9.30;7.57;;;;;;;;;;5012863;28;20468;-61
2023/09/07 04:09:39;;;;;;;7.03;6.33;;;;;;;;;;5012513;28;20480;-61
2023/09/07 04:12:06;;;;;;;8.07;7.37;;;;;;;;;;5012527;28;20469;-61
2023/09/07 04:14:35;;;;;;;9.23;7.53;;;;;;;;;;5012890;28;20533;-61
2023/09/07 04:17:02;;;;;;;7.77;7.07;;;;;;;;;;5012979;28;20800;-61
2023/09/07 04:19:30;;;;;;;8.60;7.33;;;;;;;;;;5012622;28;20448;-61
2023/09/07 04:21:58;;;;;;;8.70;7.83;;;;;;;;;;5012780;28;20443;-61
2023/09/07 04:24:27;;;;;;;8.23;6.93;;;;;;;;;;5012849;28;20809;-61
2023/09/07 04:26:54;;;;;;;8.30;7.10;;;;;;;;;;5012424;28;20528;-61
2023/09/07 04:29:21;;;;;;;8.60;7.80;;;;;;;;;;5012631;28;20499;-61
2023/09/07 04:31:49;;;;;;;9.93;7.10;;;;;;;;;;5012553;28;20617;-61
2023/09/07 04:34:17;;;;;;;9.50;7.60;;;;;;;;;;5012403;28;20452;-61
2023/09/07 04:36:44;;;;;;;11.10;7.17;;;;;;;;;;5015170;28;20441;-61
2023/09/07 04:39:14;;;;;;;10.40;7.50;;;;;;;;;;5016628;28;20491;-61
2023/09/07 04:41:41;;;;;;;8.43;7.63;;;;;;;;;;5016422;28;20456;-61
2023/09/07 04:44:08;;;;;;;7.97;6.90;;;;;;;;;;5016498;28;20473;-60
2023/09/07 04:46:35;;;;;;;8.00;7.20;;;;;;;;;;5016404;28;20567;-62
2023/09/07 04:49:04;;;;;;;8.80;7.87;;;;;;;;;;5016258;28;20573;-64
2023/09/07 04:51:31;;;;;;;9.33;8.40;;;;;;;;;;5016497;28;20507;-61
2023/09/07 04:53:58;;;;;;;9.87;8.93;;;;;;;;;;5015366;28;20442;-61
2023/09/07 04:56:28;;;;;;;9.00;7.63;;;;;;;;;;5016070;28;20914;-61
2023/09/07 04:58:55;;;;;;;11.00;8.43;;;;;;;;;;5016233;28;20515;-61
2023/09/07 05:01:22;;;;;;;8.30;7.50;;;;;;;;;;5015869;28;20471;-61
2023/09/07 05:03:51;;;;;;;13.87;9.93;;;;;;;;;;5015472;28;20441;-61
2023/09/07 05:06:19;;;;;;;10.50;7.70;;;;;;;;;;5015322;28;20450;-61
2023/09/07 05:08:46;;;;;;;10.90;7.20;;;;;;;;;;5015721;28;20436;-61
2023/09/07 05:11:13;;;;;;;9.13;8.00;;;;;;;;;;5015520;28;20449;-61
2023/09/07 05:13:41;;;;;;;10.70;8.00;;;;;;;;;;5015414;28;20440;-61
2023/09/07 05:16:08;;;;;;;11.33;8.27;;;;;;;;;;5015549;28;20477;-61
2023/09/07 05:18:35;;;;;;;12.23;7.97;;;;;;;;;;5015656;28;20531;-61
2023/09/07 05:21:02;;;;;;;8.17;7.37;;;;;;;;;;5015662;28;20449;-61
2023/09/07 05:23:31;;;;;;;11.10;8.03;;;;;;;;;;5015908;28;20441;-61
2023/09/07 05:25:58;;;;;;;10.20;8.33;;;;;;;;;;5015375;28;20530;-61
2023/09/07 05:28:25;;;;;;;8.70;7.83;;;;;;;;;;5015151;28;20484;-61
2023/09/07 05:30:53;;;;;;;8.87;7.93;;;;;;;;;;5015947;28;20814;-61
2023/09/07 05:33:20;;;;;;;10.00;8.07;;;;;;;;;;5015492;28;20532;-61
2023/09/07 05:35:47;;;;;;;9.33;7.73;;;;;;;;;;5015524;28;20535;-61
2023/09/07 05:38:14;;;;;;;8.57;7.87;;;;;;;;;;5014959;28;20933;-61
2023/09/07 05:40:44;;;;;;;9.20;7.87;;;;;;;;;;5015664;28;20446;-62
2023/09/07 05:43:12;;;;;;;12.27;8.77;;;;;;;;;;5015283;28;20443;-61
2023/09/07 05:45:40;;;;;;;9.17;8.27;;;;;;;;;;5015683;28;20445;-61
2023/09/07 05:48:08;;;;;;;11.03;9.97;;;;;;;;;;5014774;28;20495;-61
2023/09/07 05:50:36;;;;;;;10.80;9.17;;;;;;;;;;5015040;28;20487;-61
2023/09/07 05:53:03;;;;;;;10.37;8.50;;;;;;;;;;5014846;28;20446;-61
2023/09/07 05:55:31;;;;;;;9.23;8.03;;;;;;;;;;5015054;28;20447;-61
2023/09/07 05:58:00;;;;;;;14.40;8.90;;;;;;;;;;5014999;28;20442;-61
2023/09/07 06:00:27;;;;;;;9.60;7.37;;;;;;;;;;5014610;28;20453;-61
2023/09/07 06:02:54;;;;;;;12.20;8.87;;;;;;;;;;5014855;28;20450;-61
2023/09/07 06:05:21;;;;;;;12.43;9.53;;;;;;;;;;5014658;28;20945;-61
2023/09/07 06:07:49;;;;;;;8.50;7.60;;;;;;;;;;5014478;28;20927;-61
2023/09/07 06:10:17;;;;;;;10.50;7.07;;;;;;;;;;5014992;28;20477;-61
2023/09/07 06:12:44;;;;;;;8.57;7.70;;;;;;;;;;5014277;28;20490;-61
2023/09/07 06:15:13;;;;;;;8.77;7.97;;;;;;;;;;5014477;28;20439;-60
2023/09/07 06:17:40;;;;;;;9.10;7.37;;;;;;;;;;5015019;28;20451;-61
2023/09/07 06:20:08;;;;;;;8.30;7.43;;;;;;;;;;5014702;28;20441;-61
2023/09/07 06:22:35;;;;;;;13.87;8.10;;;;;;;;;;5014640;28;20536;-61
2023/09/07 06:25:02;;;;;;;10.43;8.00;;;;;;;;;;5014618;28;20438;-62
2023/09/07 06:27:30;;;;;;;7.50;6.80;;;;;;;;;;5014069;28;20435;-61
2023/09/07 06:29:57;;;;;;;8.77;6.90;;;;;;;;;;5013622;28;21009;-61
2023/09/07 06:32:25;;;;;;;18.43;10.80;;;;;;;;;;5014280;28;20447;-61
2023/09/07 06:34:53;;;;;;;13.33;11.43;;;;;;;;;;5014457;28;20442;-61
2023/09/07 06:37:20;;;;;;;14.93;9.83;;;;;;;;;;5013774;28;20857;-61
2023/09/07 06:39:47;;;;;;;13.63;8.37;;;;;;;;;;5014237;28;20528;-61
2023/09/07 06:42:15;;;;;;;10.63;7.70;;;;;;;;;;5014053;28;20954;-61
2023/09/07 06:44:42;;;;;;;7.70;7.00;;;;;;;;;;5013808;28;20512;-61
2023/09/07 06:47:10;;;;;;;8.37;6.80;;;;;;;;;;5013536;28;20523;-62
2023/09/07 06:49:39;;;;;;;9.37;7.27;;;;;;;;;;5013653;28;20565;-61
2023/09/07 06:52:06;;;;;;;9.07;7.90;;;;;;;;;;5014055;28;20617;-61
2023/09/07 06:54:33;;;;;;;8.83;6.47;;;;;;;;;;5013610;28;20453;-61
2023/09/07 06:57:00;;;;;;;9.07;7.73;;;;;;;;;;5013217;28;20442;-61
2023/09/07 06:59:27;;;;;;;14.27;6.70;;;;;;;;;;5012704;28;20476;-61
2023/09/07 07:01:55;;;;;;;8.90;8.00;;;;;;;;;;5013242;28;20446;-61
2023/09/07 07:04:22;;;;;;;25.07;9.10;;;;;;;;;;5013610;28;20452;-61
2023/09/07 07:06:50;;;;;;;12.87;10.43;;;;;;;;;;5013418;28;20435;-61
2023/09/07 07:09:18;;;;;;;11.80;8.40;;;;;;;;;;5012946;28;20471;-61
2023/09/07 07:11:45;;;;;;;8.30;7.50;;;;;;;;;;5012948;28;20445;-61
2023/09/07 07:14:12;;;;;;;7.70;6.90;;;;;;;;;;5012902;28;20443;-61
2023/09/07 07:16:40;;;;;;;12.57;6.80;;;;;;;;;;5013073;28;20556;-62
2023/09/07 07:19:07;;;;;;;12.43;7.67;;;;;;;;;;5012918;28;20455;-61
2023/09/07 07:21:34;;;;;;;8.53;6.77;;;;;;;;;;5013207;28;20562;-61
2023/09/07 07:24:04;;;;;;;8.50;6.40;;;;;;;;;;5012631;28;20804;-61
2023/09/07 07:26:31;;;;;;;11.90;7.77;;;;;;;;;;5013470;28;20437;-61
2023/09/07 07:28:58;;;;;;;16.33;6.97;;;;;;;;;;5012576;28;20548;-61
2023/09/07 07:31:26;;;;;;;9.80;6.83;;;;;;;;;;5012636;28;20497;-61
2023/09/07 07:33:54;;;;;;;7.03;6.33;;;;;;;;;;5012913;28;20885;-61
2023/09/07 07:36:22;;;;;;;10.20;5.90;;;;;;;;;;5012867;28;20438;-61
2023/09/07 07:38:49;;;;;;;11.73;7.43;;;;;;;;;;5012966;28;20451;-61
2023/09/07 07:41:17;;;;;;;6.90;6.20;;;;;;;;;;5013088;28;20450;-61
2023/09/07 07:43:45;;;;;;;8.80;6.80;;;;;;;;;;5012949;28;20450;-61
2023/09/07 07:46:15;;;;;;;9.33;7.30;;;;;;;;;;5013289;28;20451;-61
2023/09/07 07:48:42;;;;;;;10.53;6.90;;;;;;;;;;5013319;28;20847;-61
2023/09/07 07:51:09;;;;;;;12.23;6.90;;;;;;;;;;5013102;28;20487;-61
2023/09/07 07:53:37;;;;;;;10.83;6.50;;;;;;;;;;5012784;28;20443;-61
2023/09/07 07:56:04;;;;;;;8.60;6.63;;;;;;;;;;5013102;28;20475;-61
2023/09/07 07:58:32;;;;;;;11.33;6.87;;;;;;;;;;5012727;28;20546;-60
2023/09/07 08:01:01;;;;;;;8.80;6.83;;;;;;;;;;5013308;28;20458;-61
2023/09/07 08:03:28;;;;;;;10.50;6.50;;;;;;;;;;5012989;28;20477;-60
2023/09/07 08:05:55;;;;;;;8.80;6.60;;;;;;;;;;5012605;28;20547;-61
2023/09/07 08:08:22;;;;;;;9.80;6.13;;;;;;;;;;5012483;28;20450;-61
2023/09/07 08:10:50;;;;;;;11.43;7.10;;;;;;;;;;5015898;28;20967;-60
2023/09/07 08:13:19;;;;;;;7.93;5.90;;;;;;;;;;5016644;28;20531;-60
2023/09/07 08:15:48;;;;;;;8.03;6.43;;;;;;;;;;5016877;28;20467;-61
2023/09/07 08:18:16;;;;;;;8.27;6.77;;;;;;;;;;5016467;28;20940;-61
2023/09/07 08:20:43;;;;;;;10.30;6.60;;;;;;;;;;5016845;28;20445;-61
2023/09/07 08:23:11;;;;;;;7.30;5.77;;;;;;;;;;5016680;28;20504;-61
2023/09/07 08:25:39;;;;;;;13.40;9.33;;;;;;;;;;5016630;28;20510;-61
2023/09/07 08:28:06;;;;;;;8.40;7.60;;;;;;;;;;5016577;28;20476;-60
2023/09/07 08:30:35;;;;;;;10.00;7.07;;;;;;;;;;5016035;28;20852;-61
2023/09/07 08:33:05;;;;;;;9.80;6.60;;;;;;;;;;5016025;28;20439;-60
2023/09/07 08:35:35;;;;;;;6.73;5.93;;;;;;;;;;5016305;28;20423;-60
2023/09/07 08:38:05;;;;;;;13.60;6.80;;;;;;;;;;5016351;28;20792;-61
2023/09/07 08:40:32;;;;;;;10.27;6.70;;;;;;;;;;5016128;28;20432;-60
2023/09/07 08:43:01;;;;;;;10.90;6.67;;;;;;;;;;5015980;28;20464;-60
2023/09/07 08:45:31;;;;;;;7.00;6.23;;;;;;;;;;5015749;28;20522;-60
2023/09/07 08:47:58;;;;;;;7.50;6.80;;;;;;;;;;5016100;28;20442;-60
2023/09/07 08:50:27;;;;;;;11.63;7.27;;;;;;;;;;5015631;28;20491;-61
2023/09/07 08:52:54;;;;;;;8.67;6.70;;;;;;;;;;5016149;28;20867;-61
2023/09/07 08:55:23;;;;;;;10.27;6.90;;;;;;;;;;5015646;28;20437;-61
2023/09/07 08:57:50;;;;;;;20.80;8.87;;;;;;;;;;5016067;28;20528;-61
2023/09/07 09:00:19;;;;;;;13.03;7.50;;;;;;;;;;5016020;28;20460;-61
2023/09/07 09:02:48;;;;;;;12.60;7.27;;;;;;;;;;5015941;28;20768;-61
2023/09/07 09:05:17;;;;;;;11.17;6.40;;;;;;;;;;5015358;28;20938;-60
2023/09/07 09:07:46;;;;;;;6.30;5.57;;;;;;;;;;5015734;28;20442;-61
2023/09/07 09:10:13;;;;;;;7.70;6.17;;;;;;;;;;5015487;28;20559;-61
2023/09/07 09:12:47;;;;;;;9.33;5.80;;;;;;;;;;5015173;28;20531;-61
2023/09/07 09:15:14;;;;;;;5.97;5.40;;;;;;;;;;5015346;28;20427;-61
2023/09/07 09:17:41;;;;;;;9.30;6.57;;;;;;;;;;5014944;28;20580;-61
2023/09/07 09:20:22;;;;;;;6.63;6.03;;;;;;;;;;5015487;28;20783;-60
2023/09/07 09:22:51;;;;;;;68.87;12.90;;;;;;;;;;5015350;28;20432;-61
2023/09/07 09:25:18;;;;;;;7.87;6.87;;;;;;;;;;5015363;28;20432;-61
2023/09/07 09:27:45;;;;;;;17.00;7.00;;;;;;;;;;5015016;28;20534;-60
2023/09/07 09:30:15;;;;;;;5.57;5.17;;;;;;;;;;5014534;28;20538;-60
2023/09/07 09:32:42;;;;;;;7.53;6.83;;;;;;;;;;5015060;28;20952;-60
2023/09/07 09:35:10;;;;;;;11.83;6.23;;;;;;;;;;5014918;28;20507;-61
2023/09/07 09:37:44;;;;;;;9.97;6.20;;;;;;;;;;5014657;28;20442;-61
2023/09/07 09:40:13;;;;;;;8.13;5.40;;;;;;;;;;5015095;28;20507;-61
2023/09/07 09:42:42;;;;;;;12.33;8.03;;;;;;;;;;5015191;28;20799;-61
2023/09/07 09:45:10;;;;;;;6.70;5.73;;;;;;;;;;5015007;28;20442;-60
2023/09/07 09:47:39;;;;;;;8.23;6.40;;;;;;;;;;5014985;28;20497;-61
2023/09/07 09:50:08;;;;;;;13.23;5.83;;;;;;;;;;5014318;28;20442;-61
2023/09/07 09:52:36;;;;;;;8.90;6.20;;;;;;;;;;5015519;28;20455;-61
2023/09/07 09:55:05;;;;;;;9.10;7.70;;;;;;;;;;5014915;28;20792;-61
2023/09/07 09:57:34;;;;;;;8.97;6.57;;;;;;;;;;5015322;28;20443;-61
2023/09/07 10:00:08;;;;;;;7.43;5.30;;;;;;;;;;5014436;28;20455;-61
2023/09/07 10:02:38;;;;;;;5.90;5.40;;;;;;;;;;5014705;28;20451;-61
2023/09/07 10:05:09;;;;;;;5.63;5.13;;;;;;;;;;5014467;28;20435;-61
2023/09/07 10:07:43;;;;;;;7.93;7.13;;;;;;;;;;5014696;28;20501;-61
2023/09/07 10:10:12;;;;;;;7.87;7.07;;;;;;;;;;5014243;28;20447;-61
2023/09/07 10:12:43;;;;;;;8.97;6.80;;;;;;;;;;5014299;28;20439;-61
2023/09/07 10:15:21;;;;;;;6.90;6.30;;;;;;;;;;5013911;28;20515;-61
2023/09/07 10:17:50;;;;;;;8.20;6.20;;;;;;;;;;5014507;28;20441;-61
2023/09/07 10:20:18;;;;;;;9.87;5.80;;;;;;;;;;5013842;28;20501;-61
2023/09/07 10:22:46;;;;;;;9.73;6.10;;;;;;;;;;5014233;28;20450;-61
2023/09/07 10:25:20;;;;;;;6.47;5.40;;;;;;;;;;5014109;28;20455;-61
2023/09/07 10:27:48;;;;;;;9.03;5.73;;;;;;;;;;5013803;28;20445;-60
2023/09/07 10:30:19;;;;;;;9.63;6.00;;;;;;;;;;5013863;28;20455;-61
2023/09/07 10:32:46;;;;;;;5.90;5.30;;;;;;;;;;5013655;28;20915;-61
2023/09/07 10:35:16;;;;;;;11.47;8.80;;;;;;;;;;5013394;28;20436;-62
2023/09/07 10:37:46;;;;;;;12.27;6.90;;;;;;;;;;5013757;28;20439;-60
2023/09/07 10:40:15;;;;;;;7.30;5.50;;;;;;;;;;5013084;28;20917;-61
2023/09/07 10:42:43;;;;;;;7.93;5.30;;;;;;;;;;5013370;28;20817;-61
2023/09/07 10:45:12;;;;;;;7.17;5.97;;;;;;;;;;5014043;28;20775;-61
2023/09/07 10:47:43;;;;;;;9.10;5.93;;;;;;;;;;5013766;28;20446;-61
2023/09/07 10:50:12;;;;;;;10.67;6.20;;;;;;;;;;5013563;28;20438;-61
2023/09/07 10:52:40;;;;;;;6.07;5.07;;;;;;;;;;5013452;28;20564;-60
2023/09/07 10:55:18;;;;;;;9.30;6.13;;;;;;;;;;5172747;27;20532;-61
2023/09/07 10:57:46;;;;;;;13.17;6.27;;;;;;;;;;5151897;27;20528;-61
2023/09/07 11:00:14;;;;;;;8.43;5.30;;;;;;;;;;5151762;27;20440;-61
2023/09/07 11:02:42;;;;;;;7.47;5.53;;;;;;;;;;5151582;27;20421;-60
2023/09/07 11:05:09;;;;;;;5.83;5.33;;;;;;;;;;5151542;27;20447;-60
2023/09/07 11:07:37;;;;;;;7.87;5.90;;;;;;;;;;5151561;27;20448;-60
2023/09/07 11:10:06;;;;;;;14.13;7.23;;;;;;;;;;5151920;27;20443;-60
2023/09/07 11:12:39;;;;;;;6.17;5.57;;;;;;;;;;5151236;27;20431;-60
2023/09/07 11:15:06;;;;;;;6.23;5.63;;;;;;;;;;5151602;27;20468;-61
2023/09/07 11:17:34;;;;;;;13.93;6.20;;;;;;;;;;5151138;27;20527;-60
2023/09/07 11:20:06;;;;;;;12.43;6.20;;;;;;;;;;5151335;27;20920;-61
2023/09/07 11:22:33;;;;;;;5.43;4.83;;;;;;;;;;5151231;27;20896;-60
2023/09/07 11:25:01;;;;;;;15.20;5.70;;;;;;;;;;5151638;27;20444;-60
2023/09/07 11:27:30;;;;;;;5.53;4.90;;;;;;;;;;5150932;27;20433;-60
2023/09/07 11:30:00;;;;;;;9.13;5.53;;;;;;;;;;5151057;27;20436;-64
2023/09/07 11:32:34;;;;;;;10.70;5.40;;;;;;;;;;5151099;27;20786;-61
2023/09/07 11:35:02;;;;;;;8.80;5.13;;;;;;;;;;5151100;27;20467;-61
2023/09/07 11:37:29;;;;;;;5.70;5.10;;;;;;;;;;5150669;27;20494;-61
2023/09/07 11:39:56;;;;;;;11.17;5.30;;;;;;;;;;5150956;27;20441;-61
2023/09/07 11:42:23;;;;;;;9.17;5.40;;;;;;;;;;5150740;27;20433;-60
2023/09/07 11:44:50;;;;;;;7.77;5.47;;;;;;;;;;5149752;27;20449;-61
2023/09/07 11:47:19;;;;;;;5.50;4.97;;;;;;;;;;5150020;27;20752;-60
2023/09/07 11:49:48;;;;;;;7.03;5.33;;;;;;;;;;5150070;27;20444;-61
2023/09/07 11:52:15;;;;;;;7.20;4.90;;;;;;;;;;5150758;27;20441;-60
2023/09/07 11:54:42;;;;;;;6.33;5.43;;;;;;;;;;5149621;27;20579;-61
2023/09/07 11:57:10;;;;;;;8.83;4.93;;;;;;;;;;5150586;27;20504;-60
2023/09/07 11:59:37;;;;;;;5.57;5.10;;;;;;;;;;5150653;27;20446;-61
2023/09/07 12:02:04;;;;;;;6.10;4.50;;;;;;;;;;5150003;27;20438;-60
2023/09/07 12:04:33;;;;;;;6.23;4.80;;;;;;;;;;5148677;27;20840;-61
2023/09/07 12:07:00;;;;;;;5.23;4.83;;;;;;;;;;5135905;27;20482;-61
2023/09/07 12:09:27;;;;;;;5.97;4.90;;;;;;;;;;5136356;27;20437;-61
2023/09/07 12:11:54;;;;;;;5.60;5.00;;;;;;;;;;5136044;27;20446;-60
2023/09/07 12:14:22;;;;;;;6.20;4.77;;;;;;;;;;5135754;27;20890;-61
2023/09/07 12:16:49;;;;;;;6.87;4.60;;;;;;;;;;5136199;27;20434;-60
2023/09/07 12:19:16;;;;;;;10.03;4.57;;;;;;;;;;5135949;27;20439;-60
2023/09/07 12:21:45;;;;;;;5.00;4.50;;;;;;;;;;5136226;27;20441;-61
2023/09/07 12:24:13;;;;;;;14.70;5.60;;;;;;;;;;5136449;27;20608;-61
2023/09/07 12:26:40;;;;;;;4.10;3.80;;;;;;;;;;5135781;27;20437;-61
2023/09/07 12:29:07;;;;;;;4.90;4.50;;;;;;;;;;5136261;27;20445;-61
2023/09/07 12:31:35;;;;;;;5.00;4.60;;;;;;;;;;5135850;27;20432;-61
2023/09/07 12:34:02;;;;;;;5.10;4.60;;;;;;;;;;5135539;27;20472;-61
2023/09/07 12:36:29;;;;;;;4.90;4.37;;;;;;;;;;5135832;27;20428;-61
2023/09/07 12:39:01;;;;;;;5.33;4.27;;;;;;;;;;5135635;27;20930;-60
2023/09/07 12:41:28;;;;;;;5.60;4.67;;;;;;;;;;5135691;27;20422;-61
2023/09/07 12:43:55;;;;;;;4.70;4.30;;;;;;;;;;5135830;27;20444;-61
2023/09/07 12:46:22;;;;;;;4.60;4.20;;;;;;;;;;5135353;27;20411;-60
2023/09/07 12:48:50;;;;;;;4.83;4.23;;;;;;;;;;5135836;27;20438;-60
2023/09/07 12:51:17;;;;;;;5.63;5.23;;;;;;;;;;5135635;27;20522;-61
2023/09/07 12:53:44;;;;;;;9.90;5.60;;;;;;;;;;5135408;27;20491;-61
2023/09/07 12:56:13;;;;;;;5.90;4.80;;;;;;;;;;5135419;27;20435;-60
2023/09/07 12:58:40;;;;;;;5.27;4.47;;;;;;;;;;5135055;27;20529;-61
2023/09/07 13:01:09;;;;;;;5.43;4.90;;;;;;;;;;5135728;27;20530;-60
2023/09/07 13:03:37;;;;;;;4.67;4.27;;;;;;;;;;5135223;27;20784;-61
2023/09/07 13:06:04;;;;;;;5.20;4.70;;;;;;;;;;5135501;27;20441;-61
2023/09/07 13:08:31;;;;;;;6.13;4.90;;;;;;;;;;5134919;27;20416;-61
2023/09/07 13:10:58;;;;;;;4.33;4.03;;;;;;;;;;5135031;27;20928;-61
2023/09/07 13:13:28;;;;;;;6.00;5.17;;;;;;;;;;5135138;27;20831;-61
2023/09/07 13:15:56;;;;;;;5.93;4.10;;;;;;;;;;5134706;27;20483;-61
2023/09/07 13:18:23;;;;;;;5.23;4.70;;;;;;;;;;5133899;27;20403;-61
2023/09/07 13:20:51;;;;;;;5.70;5.10;;;;;;;;;;5135127;27;20896;-61
2023/09/07 13:23:19;;;;;;;11.60;4.93;;;;;;;;;;5135194;27;20424;-61
2023/09/07 13:25:46;;;;;;;6.90;5.67;;;;;;;;;;5134815;27;20433;-61
2023/09/07 13:28:13;;;;;;;4.60;4.20;;;;;;;;;;5134540;27;20505;-61
2023/09/07 13:30:42;;;;;;;10.53;5.63;;;;;;;;;;5134718;27;20417;-62
2023/09/07 13:33:09;;;;;;;5.80;4.93;;;;;;;;;;5134466;27;20408;-61
2023/09/07 13:35:36;;;;;;;5.07;4.67;;;;;;;;;;5134357;27;20454;-62
2023/09/07 13:38:03;;;;;;;6.47;5.43;;;;;;;;;;5134742;27;20448;-61
2023/09/07 13:40:30;;;;;;;5.77;5.17;;;;;;;;;;5134574;27;20539;-61
2023/09/07 13:42:58;;;;;;;5.63;4.40;;;;;;;;;;5134477;27;20433;-61
2023/09/07 13:45:25;;;;;;;7.50;6.47;;;;;;;;;;5134787;27;20419;-61
2023/09/07 13:47:53;;;;;;;8.30;7.37;;;;;;;;;;5134738;27;20501;-61
2023/09/07 13:50:21;;;;;;;12.87;5.00;;;;;;;;;;5134634;27;20818;-61
2023/09/07 13:52:48;;;;;;;5.40;4.60;;;;;;;;;;5134182;27;20535;-62
2023/09/07 13:55:16;;;;;;;5.20;4.60;;;;;;;;;;5134824;27;20573;-61
2023/09/07 13:57:43;;;;;;;5.43;4.77;;;;;;;;;;5134479;27;20416;-61
2023/09/07 14:00:10;;;;;;;4.60;4.20;;;;;;;;;;5134419;27;20412;-61
2023/09/07 14:02:38;;;;;;;6.70;4.70;;;;;;;;;;5134498;27;20522;-61
2023/09/07 14:05:07;;;;;;;6.57;5.40;;;;;;;;;;5134125;27;20454;-61
2023/09/07 14:07:35;;;;;;;6.93;4.60;;;;;;;;;;5134726;27;20494;-61
2023/09/07 14:10:02;;;;;;;5.03;4.53;;;;;;;;;;5134321;27;20428;-61
2023/09/07 14:12:29;;;;;;;5.00;4.40;;;;;;;;;;5134237;27;20440;-61
2023/09/07 14:14:56;;;;;;;4.73;4.20;;;;;;;;;;5133967;27;20553;-61
2023/09/07 14:17:23;;;;;;;7.97;4.27;;;;;;;;;;5134375;27;20470;-61
2023/09/07 14:19:51;;;;;;;5.07;4.57;;;;;;;;;;5133908;27;20436;-61
2023/09/07 14:22:19;;;;;;;5.07;4.67;;;;;;;;;;5134114;27;20408;-61
2023/09/07 14:24:46;;;;;;;8.50;5.07;;;;;;;;;;5134320;27;20473;-61
2023/09/07 14:27:13;;;;;;;5.80;4.60;;;;;;;;;;5134332;27;20519;-60
2023/09/07 14:29:41;;;;;;;6.40;5.73;;;;;;;;;;5133340;27;20445;-61
2023/09/07 14:32:08;;;;;;;6.90;5.00;;;;;;;;;;5133692;27;20444;-61
2023/09/07 14:34:35;;;;;;;5.07;4.53;;;;;;;;;;5133666;27;20810;-61
2023/09/07 14:37:02;;;;;;;5.93;4.30;;;;;;;;;;5134065;27;20531;-61
2023/09/07 14:39:31;;;;;;;8.23;4.53;;;;;;;;;;5133792;27;20551;-61
2023/09/07 14:42:00;;;;;;;6.30;3.70;;;;;;;;;;5133993;27;20814;-60
2023/09/07 14:44:28;;;;;;;8.13;4.90;;;;;;;;;;5133574;27;20441;-61